createdAt,value
2019-01-06T00:02:28.061Z,102593.95
2019-01-06T00:07:39.580Z,102610.56
2019-01-06T00:12:52.357Z,102615.63
2019-01-06T00:18:15.255Z,102621.16
2019-01-06T00:23:26.184Z,102621.10
2019-01-06T00:28:33.553Z,102626.83
2019-01-06T00:33:45.192Z,102629.09
2019-01-06T00:38:56.077Z,102636.04
2019-01-06T00:44:07.775Z,102621.75
2019-01-06T00:49:19.509Z,102616.73
2019-01-06T00:54:31.302Z,102618.55
2019-01-06T00:59:43.794Z,102635.77
2019-01-06T01:05:06.659Z,102650.99
2019-01-06T01:10:28.292Z,102649.00
2019-01-06T01:15:39.527Z,102656.84
2019-01-06T01:20:51.988Z,102648.53
2019-01-06T01:26:13.591Z,102647.64
2019-01-06T01:31:24.612Z,102648.71
2019-01-06T01:36:46.021Z,102655.01
2019-01-06T01:42:09.319Z,102672.23
2019-01-06T01:47:20.322Z,102667.88
2019-01-06T01:52:41.433Z,102664.09
2019-01-06T01:57:53.949Z,102662.89
2019-01-06T02:03:18.367Z,102665.05
2019-01-06T02:08:44.187Z,102662.84
2019-01-06T02:14:08.804Z,102665.55
2019-01-06T02:19:18.986Z,102663.33
2019-01-06T02:24:40.643Z,102655.64
2019-01-06T02:30:11.371Z,102660.06
2019-01-06T02:35:24.490Z,102658.62
2019-01-06T02:40:55.128Z,102657.61
2019-01-06T02:45:57.541Z,102649.88
2019-01-06T02:51:12.225Z,102655.30
2019-01-06T02:56:23.514Z,102656.24
2019-01-06T03:01:35.013Z,102654.08
2019-01-06T03:06:46.285Z,102657.99
2019-01-06T03:12:01.809Z,102649.98
2019-01-06T03:17:17.467Z,102649.41
2019-01-06T03:22:48.205Z,102651.64
2019-01-06T03:27:59.401Z,102649.23
2019-01-06T03:33:10.588Z,102637.44
2019-01-06T03:38:36.598Z,102639.77
2019-01-06T03:43:48.207Z,102635.15
2019-01-06T03:48:59.632Z,102627.99
2019-01-06T03:54:10.946Z,102621.62
2019-01-06T03:59:35.904Z,102617.89
2019-01-06T04:04:51.068Z,102612.27
2019-01-06T04:10:02.418Z,102607.62
2019-01-06T04:15:15.572Z,102606.17
2019-01-06T04:20:28.075Z,102601.93
2019-01-06T04:25:39.411Z,102597.97
2019-01-06T04:30:54.401Z,102605.29
2019-01-06T04:36:06.860Z,102596.47
2019-01-06T04:41:34.453Z,102592.16
2019-01-06T04:46:48.482Z,102594.64
2019-01-06T04:52:09.763Z,102590.52
2019-01-06T04:57:37.534Z,102590.62
2019-01-06T05:02:48.915Z,102587.84
2019-01-06T05:08:00.240Z,102594.22
2019-01-06T05:13:11.607Z,102593.86
2019-01-06T05:18:22.425Z,102593.53
2019-01-06T05:23:37.026Z,102590.08
2019-01-06T05:28:45.371Z,102595.00
2019-01-06T05:33:57.892Z,102600.91
2019-01-06T05:39:10.477Z,102601.00
2019-01-06T05:44:22.977Z,102603.84
2019-01-06T05:49:35.457Z,102616.20
2019-01-06T05:54:59.902Z,102621.95
2019-01-06T06:00:27.695Z,102622.42
2019-01-06T06:05:49.436Z,102626.91
2019-01-06T06:10:56.481Z,102629.64
2019-01-06T06:16:07.774Z,102632.63
2019-01-06T06:21:29.534Z,102638.77
2019-01-06T06:26:40.888Z,102641.69
2019-01-06T06:31:59.413Z,102644.46
2019-01-06T06:37:11.974Z,102644.39
2019-01-06T06:42:24.652Z,102647.61
2019-01-06T06:47:36.061Z,102652.42
2019-01-06T06:52:48.431Z,102664.29
2019-01-06T06:58:45.025Z,102662.62
2019-01-06T07:03:59.921Z,102669.88
2019-01-06T07:09:15.418Z,102682.24
2019-01-06T07:14:26.915Z,102688.69
2019-01-06T07:19:41.830Z,102690.05
2019-01-06T07:24:54.185Z,102700.70
2019-01-06T07:30:06.627Z,102671.67
2019-01-06T07:35:18.111Z,102710.41
2019-01-06T07:40:31.059Z,102710.95
2019-01-06T07:45:49.899Z,102710.39
2019-01-06T07:51:14.783Z,102715.34
2019-01-06T07:56:25.898Z,102719.57
2019-01-06T08:01:37.287Z,102724.11
2019-01-06T08:06:48.892Z,102722.20
2019-01-06T08:12:07.710Z,102732.39
2019-01-06T08:17:19.252Z,102736.53
2019-01-06T08:22:40.783Z,102743.34
2019-01-06T08:28:05.629Z,102754.66
2019-01-06T08:33:16.670Z,102754.98
2019-01-06T08:38:28.031Z,102755.31
2019-01-06T08:43:39.391Z,102757.64
2019-01-06T08:48:50.748Z,102757.89
2019-01-06T08:54:09.390Z,102755.30
2019-01-06T08:59:20.739Z,102761.16
2019-01-06T09:04:25.707Z,102761.98
2019-01-06T09:09:45.725Z,102767.45
2019-01-06T09:14:51.362Z,102766.75
2019-01-06T09:20:03.848Z,102773.14
2019-01-06T09:25:41.015Z,102779.17
2019-01-06T09:30:51.697Z,102777.88
2019-01-06T09:36:03.384Z,102785.22
2019-01-06T09:41:18.612Z,102789.54
2019-01-06T09:46:40.060Z,102788.59
2019-01-06T09:51:55.305Z,102788.59
2019-01-06T09:57:06.640Z,102786.03
2019-01-06T10:02:19.163Z,102786.77
2019-01-06T10:07:30.507Z,102788.72
2019-01-06T10:12:46.984Z,102754.50
2019-01-06T10:18:17.863Z,102789.95
2019-01-06T10:23:36.451Z,102794.20
2019-01-06T10:28:47.630Z,102791.44
2019-01-06T10:34:03.172Z,102788.10
2019-01-06T10:39:27.699Z,102796.67
2019-01-06T10:44:42.959Z,102785.69
2019-01-06T10:50:04.650Z,102801.95
2019-01-06T10:55:21.653Z,102800.96
2019-01-06T11:00:33.906Z,102789.20
2019-01-06T11:05:43.137Z,102791.63
2019-01-06T11:10:54.304Z,102787.46
2019-01-06T11:16:13.138Z,102789.39
2019-01-06T11:21:32.453Z,102783.97
2019-01-06T11:26:54.379Z,102788.09
2019-01-06T11:32:11.136Z,102784.55
2019-01-06T11:37:23.438Z,102789.94
2019-01-06T11:42:34.707Z,102786.91
2019-01-06T11:47:46.183Z,102784.08
2019-01-06T11:52:57.522Z,102781.92
2019-01-06T11:58:09.033Z,102775.87
2019-01-06T12:03:31.494Z,102767.45
2019-01-06T12:08:45.955Z,102769.66
2019-01-06T12:13:56.695Z,102768.25
2019-01-06T12:19:12.451Z,102767.15
2019-01-06T12:24:31.673Z,102764.62
2019-01-06T12:29:48.390Z,102764.28
2019-01-06T12:35:00.586Z,102763.64
2019-01-06T12:40:05.470Z,102754.61
2019-01-06T12:45:16.921Z,102757.66
2019-01-06T12:50:29.528Z,102756.61
2019-01-06T12:55:42.015Z,102759.15
2019-01-06T13:01:00.603Z,102757.03
2019-01-06T13:06:25.279Z,102762.22
2019-01-06T13:11:49.352Z,102768.53
2019-01-06T13:17:20.470Z,102771.08
2019-01-06T13:22:35.927Z,102769.67
2019-01-06T13:28:02.788Z,102778.31
2019-01-06T13:33:29.388Z,102782.22
2019-01-06T13:38:44.714Z,102786.14
2019-01-06T13:43:59.971Z,102784.35
2019-01-06T13:49:30.505Z,102782.97
2019-01-06T13:54:43.214Z,102785.06
2019-01-06T14:00:08.061Z,102797.70
2019-01-06T14:05:33.252Z,102794.84
2019-01-06T14:10:45.923Z,102805.22
2019-01-06T14:15:57.162Z,102808.42
2019-01-06T14:21:25.384Z,102807.10
2019-01-06T14:26:50.349Z,102806.17
2019-01-06T14:32:15.672Z,102810.09
2019-01-06T14:37:31.956Z,102813.84
2019-01-06T14:42:49.431Z,102815.08
2019-01-06T14:47:52.381Z,102813.88
2019-01-06T14:53:05.187Z,102821.41
2019-01-06T14:58:33.055Z,102817.13
2019-01-06T15:04:12.103Z,102823.52
2019-01-06T15:09:23.944Z,102822.24
2019-01-06T15:14:42.699Z,102825.66
2019-01-06T15:19:54.136Z,102820.28
2019-01-06T15:25:09.413Z,102819.56
2019-01-06T15:30:36.115Z,102813.66
2019-01-06T15:35:46.650Z,102817.95
2019-01-06T15:41:01.715Z,102823.72
2019-01-06T15:46:12.765Z,102826.72
2019-01-06T15:51:30.880Z,102825.73
2019-01-06T15:56:40.283Z,102830.52
2019-01-06T16:02:10.885Z,102837.13
2019-01-06T16:07:26.266Z,102825.89
2019-01-06T16:12:37.420Z,102831.02
2019-01-06T16:17:49.978Z,102842.41
2019-01-06T16:23:01.860Z,102834.77
2019-01-06T16:28:12.880Z,102833.46
2019-01-06T16:33:34.509Z,102832.11
2019-01-06T16:38:45.989Z,102847.48
2019-01-06T16:44:05.283Z,102846.97
2019-01-06T16:49:27.093Z,102853.66
2019-01-06T16:54:42.839Z,102851.71
2019-01-06T16:59:55.397Z,102849.42
2019-01-06T17:05:08.018Z,102854.36
2019-01-06T17:10:17.669Z,102852.75
2019-01-06T17:15:42.447Z,102846.94
2019-01-06T17:20:46.421Z,102849.38
2019-01-06T17:26:03.638Z,102848.45
2019-01-06T17:31:14.980Z,102845.89
2019-01-06T17:36:26.295Z,102852.55
2019-01-06T17:41:49.264Z,102848.95
2019-01-06T17:47:00.504Z,102846.91
2019-01-06T17:52:19.288Z,102849.02
2019-01-06T17:57:47.225Z,102855.46
2019-01-06T18:02:58.610Z,102862.09
2019-01-06T18:08:10.138Z,102864.58
2019-01-06T18:13:21.570Z,102867.95
2019-01-06T18:18:32.559Z,102867.45
2019-01-06T18:23:51.177Z,102876.45
2019-01-06T18:29:18.717Z,102872.12
2019-01-06T18:34:37.406Z,102873.28
2019-01-06T18:39:48.642Z,102880.05
2019-01-06T18:45:13.483Z,102883.33
2019-01-06T18:50:30.192Z,102877.60
2019-01-06T18:55:41.419Z,102880.20
2019-01-06T19:00:48.209Z,102884.05
2019-01-06T19:05:57.995Z,102887.80
2019-01-06T19:11:09.377Z,102894.42
2019-01-06T19:16:35.590Z,102886.86
2019-01-06T19:21:51.014Z,102884.27
2019-01-06T19:27:15.638Z,102882.45
2019-01-06T19:32:31.532Z,102886.37
2019-01-06T19:37:55.522Z,102889.58
2019-01-06T19:43:15.073Z,102898.06
2019-01-06T19:48:40.898Z,102899.31
2019-01-06T19:53:52.377Z,102899.99
2019-01-06T19:59:17.554Z,102897.48
2019-01-06T20:04:33.756Z,102898.12
2019-01-06T20:09:37.684Z,102898.11
2019-01-06T20:14:46.176Z,102895.09
2019-01-06T20:20:07.441Z,102899.50
2019-01-06T20:25:19.058Z,102900.98
2019-01-06T20:30:31.641Z,102898.20
2019-01-06T20:35:44.385Z,102904.42
2019-01-06T20:40:55.821Z,102909.48
2019-01-06T20:46:23.813Z,102913.29
2019-01-06T20:51:46.767Z,102914.53
2019-01-06T20:56:57.912Z,102907.37
2019-01-06T21:02:10.540Z,102908.02
2019-01-06T21:07:35.291Z,102910.28
2019-01-06T21:12:47.852Z,102915.06
2019-01-06T21:18:00.855Z,102916.08
2019-01-06T21:23:15.045Z,102920.78
2019-01-06T21:28:37.640Z,102916.44
2019-01-06T21:33:42.620Z,102915.92
2019-01-06T21:38:57.185Z,102918.27
2019-01-06T21:44:09.328Z,102917.72
2019-01-06T21:49:27.520Z,102917.16
2019-01-06T21:54:42.502Z,102923.06
2019-01-06T21:59:58.315Z,102914.17
2019-01-06T22:05:11.404Z,102915.45
2019-01-06T22:10:24.616Z,102921.45
2019-01-06T22:15:51.203Z,102917.84
2019-01-06T22:21:02.811Z,102921.93
2019-01-06T22:26:09.496Z,102921.09
2019-01-06T22:31:30.719Z,102925.07
2019-01-06T22:36:43.207Z,102917.94
2019-01-06T22:42:13.607Z,102914.90
2019-01-06T22:47:30.267Z,102907.42
2019-01-06T22:52:50.931Z,102905.48
2019-01-06T22:58:11.626Z,102903.95
2019-01-06T23:03:24.670Z,102905.70
2019-01-06T23:08:40.337Z,102901.50
2019-01-06T23:14:06.447Z,102909.55
2019-01-06T23:19:29.059Z,102907.71
2019-01-06T23:24:40.202Z,102911.41
2019-01-06T23:30:02.368Z,102909.17
2019-01-06T23:35:17.599Z,102911.63
2019-01-06T23:40:28.986Z,102918.39
2019-01-06T23:45:47.492Z,102915.81
2019-01-06T23:51:15.300Z,102916.00
2019-01-06T23:56:34.570Z,102914.69
